Time;durP1;ratioP1;P1;durP2;ratioP2;P2;SDS_P1;SDS_P2;PMS_P1;PMS_P2;Temp;Humidity;BMP_temperature;BMP_pressure;BME280_temperature;BME280_humidity;BME280_pressure;Samples;Min_cycle;Max_cycle;Signal;HPM_P1;HPM_P2
2023/11/16 00:01:32;;;;;;;2.95;1.85;;;22.40;55.00;;;;;;10381718;28;20226;-50
2023/11/16 00:06:36;;;;;;;4.38;2.00;;;22.50;55.10;;;;;;10396285;28;20216;-52
2023/11/16 00:11:41;;;;;;;3.00;1.63;;;22.40;55.00;;;;;;10395975;28;20205;-53
2023/11/16 00:16:48;;;;;;;3.80;1.70;;;22.40;55.00;;;;;;10390657;28;20314;-49
2023/11/16 00:21:52;;;;;;;4.15;1.85;;;22.40;55.00;;;;;;10392057;28;20201;-52
2023/11/16 00:26:55;;;;;;;2.03;1.70;;;22.40;55.00;;;;;;10398956;28;20823;-51
2023/11/16 00:32:00;;;;;;;3.03;1.60;;;22.40;55.00;;;;;;10385040;28;20201;-50
2023/11/16 00:37:05;;;;;;;2.70;1.65;;;22.40;55.60;;;;;;10375161;28;20229;-50
2023/11/16 00:42:09;;;;;;;3.38;1.38;;;22.40;55.00;;;;;;10392587;28;20208;-53
2023/11/16 00:47:18;;;;;;;4.03;1.67;;;22.40;54.90;;;;;;10395119;28;20247;-49
2023/11/16 00:52:24;;;;;;;3.55;1.85;;;22.40;54.90;;;;;;10386438;28;20239;-49
2023/11/16 00:57:28;;;;;;;3.28;1.55;;;22.40;54.90;;;;;;10394160;28;20224;-50
2023/11/16 01:02:33;;;;;;;3.83;1.55;;;22.40;54.90;;;;;;10380336;28;20694;-49
2023/11/16 01:07:38;;;;;;;2.50;1.58;;;22.40;54.90;;;;;;10391461;28;20216;-52
2023/11/16 01:12:43;;;;;;;4.35;1.70;;;22.40;54.90;;;;;;10401244;28;20205;-52
2023/11/16 01:17:49;;;;;;;2.65;1.70;;;22.40;54.90;;;;;;10389896;28;20224;-51
2023/11/16 01:23:02;;;;;;;3.83;1.55;;;22.40;54.90;;;;;;10381430;28;20609;-51
2023/11/16 01:28:05;;;;;;;2.22;1.40;;;22.40;54.90;;;;;;10395042;28;20225;-54
2023/11/16 01:33:11;;;;;;;4.25;1.60;;;22.40;54.90;;;;;;10384614;28;20693;-55
2023/11/16 01:38:15;;;;;;;3.42;1.90;;;22.40;54.90;;;;;;10383308;28;20284;-52
2023/11/16 01:43:18;;;;;;;3.38;1.60;;;22.40;54.90;;;;;;10379538;28;20197;-52
2023/11/16 01:48:25;;;;;;;2.95;1.70;;;22.40;54.90;;;;;;10379908;28;20220;-52
2023/11/16 01:53:28;;;;;;;2.42;1.35;;;22.40;54.90;;;;;;10368343;28;20208;-52
2023/11/16 01:58:33;;;;;;;2.83;1.60;;;22.40;54.90;;;;;;10373820;28;20652;-55
2023/11/16 02:03:38;;;;;;;2.63;1.50;;;22.40;54.90;;;;;;10374872;28;20201;-55
2023/11/16 02:08:42;;;;;;;2.55;1.48;;;22.40;54.90;;;;;;10391652;28;20225;-53
2023/11/16 02:13:45;;;;;;;2.42;1.50;;;22.40;54.90;;;;;;10377886;28;20897;-52
2023/11/16 02:18:52;;;;;;;2.88;1.63;;;22.40;54.90;;;;;;10374702;28;20352;-51
2023/11/16 02:23:57;;;;;;;2.83;1.60;;;22.40;54.80;;;;;;10382277;28;20624;-51
2023/11/16 02:29:01;;;;;;;2.42;1.25;;;22.40;54.90;;;;;;10376346;28;20221;-54
2023/11/16 02:34:05;;;;;;;1.80;1.38;;;22.40;54.80;;;;;;10380373;28;20232;-55
2023/11/16 02:39:15;;;;;;;2.03;1.23;;;22.40;54.80;;;;;;10376235;28;20288;-55
2023/11/16 02:44:19;;;;;;;2.63;1.50;;;22.40;54.80;;;;;;10378350;28;20637;-52
2023/11/16 02:49:23;;;;;;;2.67;1.33;;;22.40;54.80;;;;;;10370248;28;20307;-53
2023/11/16 02:54:28;;;;;;;3.28;1.70;;;22.40;54.80;;;;;;10376016;28;20738;-52
2023/11/16 02:59:32;;;;;;;2.25;1.60;;;22.40;54.80;;;;;;10385286;28;20303;-54
2023/11/16 03:04:35;;;;;;;2.22;1.30;;;22.40;54.80;;;;;;10389448;28;20251;-53
2023/11/16 03:09:40;;;;;;;2.13;1.40;;;22.40;54.70;;;;;;10370038;28;20224;-55
2023/11/16 03:14:44;;;;;;;2.55;1.50;;;22.40;54.80;;;;;;10374682;28;20628;-50
2023/11/16 03:19:47;;;;;;;2.67;1.67;;;22.40;54.70;;;;;;10380390;28;20762;-49
2023/11/16 03:24:53;;;;;;;2.25;1.40;;;22.40;54.70;;;;;;10382878;28;20259;-49
2023/11/16 03:29:56;;;;;;;2.92;1.42;;;22.40;54.70;;;;;;10395012;28;20677;-50
2023/11/16 03:35:03;;;;;;;4.00;1.50;;;22.40;55.40;;;;;;10375393;28;20206;-52
2023/11/16 03:40:09;;;;;;;2.80;1.40;;;22.40;54.70;;;;;;10388057;28;20224;-49
2023/11/16 03:45:12;;;;;;;3.33;1.60;;;22.40;54.70;;;;;;10390793;28;20681;-53
2023/11/16 03:50:16;;;;;;;2.25;1.50;;;22.40;54.70;;;;;;10387298;28;20236;-51
2023/11/16 03:55:21;;;;;;;3.63;1.90;;;22.40;54.70;;;;;;10369617;28;20322;-55
2023/11/16 04:00:25;;;;;;;2.95;1.58;;;22.40;54.70;;;;;;10379305;28;20233;-54
2023/11/16 04:05:30;;;;;;;6.93;1.73;;;22.40;54.70;;;;;;10380616;28;20271;-48
2023/11/16 04:10:35;;;;;;;4.55;1.88;;;22.50;54.70;;;;;;10363328;28;20294;-51
2023/11/16 04:15:39;;;;;;;13.25;2.47;;;22.50;54.70;;;;;;10373358;28;20220;-48
2023/11/16 04:20:42;;;;;;;19.63;2.80;;;22.50;54.70;;;;;;10361639;28;20263;-46
2023/11/16 04:25:54;;;;;;;30.33;3.28;;;22.50;54.70;;;;;;10365868;28;20225;-47
2023/11/16 04:30:57;;;;;;;23.38;3.33;;;22.50;54.80;;;;;;10360529;28;20228;-49
2023/11/16 04:36:01;;;;;;;24.33;3.13;;;22.50;54.80;;;;;;10381708;28;20259;-44
2023/11/16 04:41:10;;;;;;;10.57;2.00;;;22.50;54.80;;;;;;10375073;28;20228;-46
2023/11/16 04:46:13;;;;;;;14.05;2.60;;;22.50;54.80;;;;;;10379072;28;20590;-45
2023/11/16 04:51:19;;;;;;;7.07;2.00;;;22.50;54.80;;;;;;10388539;28;20753;-45
2023/11/16 04:56:24;;;;;;;9.40;2.15;;;22.50;54.80;;;;;;10367278;28;20279;-49
2023/11/16 05:01:27;;;;;;;8.45;2.47;;;22.40;54.70;;;;;;10372894;28;20224;-43
2023/11/16 05:06:31;;;;;;;8.90;1.95;;;22.40;54.70;;;;;;10374322;28;20217;-46
2023/11/16 05:11:36;;;;;;;4.68;2.10;;;22.40;54.70;;;;;;10355522;28;20227;-51
2023/11/16 05:16:41;;;;;;;4.10;1.67;;;22.40;54.70;;;;;;10373694;28;20700;-45
2023/11/16 05:21:45;;;;;;;4.75;1.77;;;22.40;54.70;;;;;;10362218;28;20263;-48
2023/11/16 05:26:51;;;;;;;4.30;1.80;;;22.40;54.70;;;;;;10376124;28;20244;-45
2023/11/16 05:31:54;;;;;;;7.10;2.10;;;22.30;54.60;;;;;;10356032;28;20307;-47
2023/11/16 05:36:58;;;;;;;3.97;1.52;;;22.40;54.70;;;;;;10371712;28;20260;-48
2023/11/16 05:42:06;;;;;;;3.83;2.08;;;22.40;54.70;;;;;;10375413;28;20205;-43
2023/11/16 05:47:09;;;;;;;4.70;1.83;;;22.30;54.70;;;;;;10367116;28;20217;-51
2023/11/16 05:52:13;;;;;;;3.95;1.65;;;22.30;54.60;;;;;;10370496;28;20562;-48
2023/11/16 05:57:18;;;;;;;6.00;1.77;;;22.30;54.60;;;;;;10379553;28;20259;-47
2023/11/16 06:02:22;;;;;;;6.95;1.80;;;22.30;54.70;;;;;;10368496;28;20228;-45
2023/11/16 06:07:25;;;;;;;5.68;2.20;;;22.30;54.70;;;;;;10366644;28;20225;-46
2023/11/16 06:12:30;;;;;;;6.38;2.20;;;22.30;54.70;;;;;;10359989;28;20564;-46
2023/11/16 06:17:34;;;;;;;4.07;1.95;;;22.30;54.70;;;;;;10366903;28;20224;-48
2023/11/16 06:22:38;;;;;;;6.22;1.90;;;22.40;54.80;;;;;;10362139;28;20201;-46
2023/11/16 06:27:45;;;;;;;5.60;2.60;;;22.30;54.70;;;;;;10361424;28;20240;-45
2023/11/16 06:32:48;;;;;;;4.07;2.00;;;22.40;54.80;;;;;;10360934;28;20251;-48
2023/11/16 06:37:52;;;;;;;5.10;2.13;;;22.40;54.90;;;;;;10364045;28;20754;-45
2023/11/16 06:42:58;;;;;;;5.70;2.20;;;22.40;54.90;;;;;;10382392;28;20232;-46
2023/11/16 06:48:02;;;;;;;5.03;2.47;;;22.40;54.90;;;;;;10375242;28;20655;-49
2023/11/16 06:53:09;;;;;;;4.85;2.50;;;22.40;54.90;;;;;;10370389;28;20216;-49
2023/11/16 06:58:14;;;;;;;4.40;1.90;;;22.30;54.80;;;;;;10374282;28;20657;-49
2023/11/16 07:03:18;;;;;;;4.97;2.22;;;22.30;54.80;;;;;;10373326;28;20205;-48
2023/11/16 07:08:21;;;;;;;6.57;2.40;;;22.40;54.90;;;;;;10369881;28;20243;-45
2023/11/16 07:13:27;;;;;;;5.70;2.13;;;22.30;54.80;;;;;;10382926;28;20231;-45
2023/11/16 07:18:31;;;;;;;4.43;2.03;;;22.30;54.80;;;;;;10375589;28;20628;-50
2023/11/16 07:23:36;;;;;;;4.47;2.00;;;22.30;54.80;;;;;;10369619;28;20201;-45
2023/11/16 07:28:42;;;;;;;3.72;2.00;;;22.30;54.90;;;;;;10371126;28;20225;-46
2023/11/16 07:33:51;;;;;;;4.65;1.90;;;22.30;54.80;;;;;;10385680;28;20205;-45
2023/11/16 07:38:56;;;;;;;3.75;1.80;;;22.30;54.80;;;;;;10374620;28;20280;-45
2023/11/16 07:44:01;;;;;;;3.58;2.05;;;22.30;54.80;;;;;;10375413;28;20731;-46
2023/11/16 07:49:04;;;;;;;4.45;1.83;;;22.30;54.80;;;;;;10382670;28;20233;-48
2023/11/16 07:54:11;;;;;;;3.63;1.88;;;22.30;54.80;;;;;;10375102;28;20610;-50
2023/11/16 07:59:18;;;;;;;3.70;2.00;;;22.30;54.80;;;;;;10373469;28;20224;-45
2023/11/16 08:04:25;;;;;;;3.70;1.77;;;22.30;54.80;;;;;;10378393;28;20795;-48
2023/11/16 08:09:31;;;;;;;6.53;1.95;;;22.30;54.80;;;;;;10372282;28;20704;-45
2023/11/16 08:14:37;;;;;;;3.78;1.90;;;22.30;54.80;;;;;;10384203;28;20227;-49
2023/11/16 08:19:41;;;;;;;4.47;1.95;;;22.30;54.80;;;;;;10376775;28;20680;-46
2023/11/16 08:24:45;;;;;;;4.38;2.03;;;22.20;54.70;;;;;;10379949;28;20666;-44
2023/11/16 08:29:50;;;;;;;4.32;1.98;;;22.30;54.80;;;;;;10373804;28;20225;-42
2023/11/16 08:34:53;;;;;;;3.97;1.63;;;22.30;54.80;;;;;;10382784;28;20201;-47
2023/11/16 08:39:57;;;;;;;3.60;2.00;;;22.30;54.70;;;;;;10372181;28;20270;-47
2023/11/16 08:45:02;;;;;;;3.92;1.88;;;22.30;55.40;;;;;;10383614;28;20205;-46
2023/11/16 08:50:12;;;;;;;5.32;2.17;;;22.30;54.70;;;;;;10377853;28;20240;-43
2023/11/16 08:55:21;;;;;;;3.42;2.00;;;22.30;54.80;;;;;;10379526;28;20774;-45
2023/11/16 09:00:33;;;;;;;4.55;1.60;;;22.30;54.70;;;;;;10369980;28;20318;-43
2023/11/16 09:05:38;;;;;;;4.45;1.98;;;22.30;54.70;;;;;;10386718;28;20228;-46
2023/11/16 09:10:43;;;;;;;2.90;2.00;;;22.30;54.70;;;;;;10370851;28;20201;-46
2023/11/16 09:15:49;;;;;;;4.57;1.85;;;22.30;54.70;;;;;;10385879;28;20846;-44
2023/11/16 09:20:56;;;;;;;4.22;2.22;;;22.30;54.70;;;;;;10367506;28;20577;-46
2023/11/16 09:26:00;;;;;;;3.97;2.20;;;22.30;54.70;;;;;;10377323;28;20224;-45
2023/11/16 09:31:10;;;;;;;5.55;2.33;;;22.30;54.80;;;;;;10371490;28;20803;-43
2023/11/16 09:36:14;;;;;;;5.50;2.40;;;22.30;54.70;;;;;;10377279;28;20697;-45
2023/11/16 09:41:23;;;;;;;3.78;2.33;;;22.30;54.80;;;;;;10387009;28;20233;-45
2023/11/16 09:46:31;;;;;;;3.63;2.15;;;22.30;54.80;;;;;;10383438;28;20541;-42
2023/11/16 09:51:37;;;;;;;3.72;2.08;;;22.30;54.80;;;;;;10377256;28;20236;-49
2023/11/16 09:56:44;;;;;;;2.53;2.08;;;22.30;54.80;;;;;;10391139;28;20228;-42
2023/11/16 10:02:07;;;;;;;6.15;1.98;;;22.30;54.80;;;;;;10371267;28;20220;-47
2023/11/16 10:07:16;;;;;;;27.77;3.13;;;22.30;54.80;;;;;;10381689;28;20227;-47
2023/11/16 10:12:21;;;;;;;21.05;2.85;;;22.30;54.80;;;;;;10373192;28;20601;-47
2023/11/16 10:17:26;;;;;;;15.18;2.63;;;22.30;54.90;;;;;;10383739;28;20213;-47
2023/11/16 10:22:30;;;;;;;12.02;2.88;;;22.30;54.80;;;;;;10386532;28;20330;-45
2023/11/16 10:27:34;;;;;;;12.10;2.40;;;22.30;54.90;;;;;;10383834;28;20220;-45
2023/11/16 10:32:42;;;;;;;5.18;2.30;;;22.30;54.80;;;;;;10369743;28;20200;-44
2023/11/16 10:37:46;;;;;;;6.00;1.75;;;22.30;54.90;;;;;;10377847;28;20258;-42
2023/11/16 10:42:52;;;;;;;4.45;1.85;;;22.30;54.90;;;;;;10393951;28;20217;-44
2023/11/16 10:47:57;;;;;;;7.18;2.65;;;22.30;54.90;;;;;;10379664;28;20220;-44
2023/11/16 10:53:06;;;;;;;4.22;2.03;;;22.30;54.90;;;;;;10385825;28;20236;-44
2023/11/16 10:58:11;;;;;;;3.67;1.90;;;22.30;54.90;;;;;;10390109;28;20278;-45
2023/11/16 11:03:17;;;;;;;5.15;1.95;;;22.30;54.90;;;;;;10378655;28;20193;-46
2023/11/16 11:08:21;;;;;;;4.65;1.95;;;22.30;54.90;;;;;;10383414;28;20281;-43
2023/11/16 11:13:26;;;;;;;3.50;1.90;;;22.30;54.80;;;;;;10378366;28;20209;-42
2023/11/16 11:18:31;;;;;;;3.97;1.98;;;22.30;54.90;;;;;;10381763;28;20247;-46
2023/11/16 11:23:37;;;;;;;5.53;2.03;;;22.30;54.90;;;;;;10388062;28;20200;-46
2023/11/16 11:28:41;;;;;;;3.83;1.77;;;22.30;54.90;;;;;;10382740;28;20224;-45
2023/11/16 11:33:47;;;;;;;4.63;2.00;;;22.30;54.90;;;;;;10381932;28;20205;-45
2023/11/16 11:38:53;;;;;;;3.75;2.05;;;22.30;54.90;;;;;;10377557;28;20307;-44
2023/11/16 11:44:04;;;;;;;4.65;1.60;;;22.30;54.90;;;;;;10397076;28;20266;-44
2023/11/16 11:49:09;;;;;;;5.57;2.00;;;22.30;54.90;;;;;;10383163;28;20644;-44
2023/11/16 11:54:16;;;;;;;4.57;2.00;;;22.30;54.90;;;;;;10396048;28;20624;-47
2023/11/16 11:59:20;;;;;;;2.30;1.42;;;22.30;54.90;;;;;;10378413;28;20260;-44
2023/11/16 12:04:32;;;;;;;1.95;1.73;;;22.30;54.90;;;;;;10382080;28;20204;-47
2023/11/16 12:09:38;;;;;;;2.55;1.77;;;22.30;55.50;;;;;;10374691;28;20268;-44
2023/11/16 12:14:45;;;;;;;5.10;1.60;;;22.30;54.90;;;;;;10383693;28;20209;-49
2023/11/16 12:19:53;;;;;;;3.35;1.80;;;22.30;54.90;;;;;;10401809;28;20220;-45
2023/11/16 12:24:59;;;;;;;2.17;1.40;;;22.30;54.90;;;;;;10384240;28;20236;-44
2023/11/16 12:30:03;;;;;;;7.97;2.47;;;22.30;54.90;;;;;;10381619;28;20197;-43
2023/11/16 12:35:11;;;;;;;4.25;1.80;;;22.10;53.80;;;;;;10382681;28;20255;-45
2023/11/16 12:40:18;;;;;;;3.55;1.40;;;22.00;54.10;;;;;;10381644;28;20248;-46
2023/11/16 12:45:22;;;;;;;4.15;2.00;;;22.10;54.30;;;;;;10370964;28;20228;-46
2023/11/16 12:50:27;;;;;;;4.93;1.60;;;22.10;54.20;;;;;;10367727;28;20205;-45
2023/11/16 12:55:31;;;;;;;5.10;1.50;;;22.20;54.30;;;;;;10367911;28;20247;-49
2023/11/16 13:00:35;;;;;;;3.35;1.58;;;22.20;54.30;;;;;;10363619;28;20235;-46
2023/11/16 13:05:42;;;;;;;5.20;1.85;;;22.20;54.30;;;;;;10369927;28;20374;-49
2023/11/16 13:10:47;;;;;;;3.30;2.08;;;22.20;54.30;;;;;;10375387;28;20227;-48
2023/11/16 13:15:51;;;;;;;5.20;2.03;;;22.20;54.90;;;;;;10385858;28;20663;-44
2023/11/16 13:20:57;;;;;;;3.80;1.98;;;22.20;54.30;;;;;;10379434;28;20244;-44
2023/11/16 13:26:01;;;;;;;4.82;1.75;;;22.20;54.30;;;;;;10399959;28;20224;-46
2023/11/16 13:31:05;;;;;;;5.10;2.15;;;22.20;54.30;;;;;;10371235;28;20274;-47
2023/11/16 13:36:11;;;;;;;4.88;2.10;;;22.20;54.30;;;;;;10380326;28;20220;-48
2023/11/16 13:41:14;;;;;;;5.45;2.17;;;22.30;54.40;;;;;;10373406;28;20244;-49
2023/11/16 13:46:18;;;;;;;4.45;1.83;;;22.30;54.40;;;;;;10388413;28;20225;-48
2023/11/16 13:51:23;;;;;;;3.13;1.73;;;22.20;54.40;;;;;;10375850;28;20236;-55
2023/11/16 13:56:26;;;;;;;4.13;1.63;;;22.30;54.50;;;;;;10390163;28;20221;-48
2023/11/16 14:01:30;;;;;;;3.45;1.80;;;22.20;54.40;;;;;;10368484;28;20365;-45
2023/11/16 14:06:35;;;;;;;2.72;1.98;;;22.20;54.40;;;;;;10381236;28;20224;-46
2023/11/16 14:11:39;;;;;;;4.65;1.90;;;22.20;54.40;;;;;;10373844;28;20244;-45
2023/11/16 14:16:43;;;;;;;2.92;1.60;;;22.30;54.50;;;;;;10369802;28;20753;-46
2023/11/16 14:21:48;;;;;;;5.05;2.03;;;22.30;54.60;;;;;;10374098;28;20225;-47
2023/11/16 14:26:52;;;;;;;2.95;1.80;;;22.20;54.50;;;;;;10371879;28;20252;-48
2023/11/16 14:31:56;;;;;;;2.72;1.80;;;22.30;54.60;;;;;;10380480;28;20197;-45
2023/11/16 14:37:04;;;;;;;4.68;2.08;;;22.30;54.60;;;;;;10376327;28;20286;-44
2023/11/16 14:42:11;;;;;;;4.72;2.03;;;22.30;54.60;;;;;;10378480;28;20221;-47
2023/11/16 14:47:15;;;;;;;3.33;1.67;;;22.30;54.60;;;;;;10369515;28;20275;-43
2023/11/16 14:52:32;;;;;;;3.00;1.80;;;22.30;54.60;;;;;;10363776;28;20213;-46
2023/11/16 14:57:37;;;;;;;3.80;2.03;;;22.30;54.60;;;;;;10379667;28;20270;-48
2023/11/16 15:02:42;;;;;;;3.05;2.03;;;22.30;54.60;;;;;;10376856;28;20736;-48
2023/11/16 15:07:47;;;;;;;3.25;1.83;;;22.30;54.70;;;;;;10384038;28;20220;-47
2023/11/16 15:12:51;;;;;;;4.07;2.17;;;22.30;54.70;;;;;;10376736;28;20201;-51
2023/11/16 15:17:57;;;;;;;4.05;2.03;;;22.30;54.70;;;;;;10378758;28;20275;-47
2023/11/16 15:23:04;;;;;;;2.72;2.20;;;22.30;54.70;;;;;;10373119;28;20295;-48
2023/11/16 15:28:11;;;;;;;2.85;2.15;;;22.30;54.70;;;;;;10378859;28;20225;-48
2023/11/16 15:33:15;;;;;;;8.63;2.28;;;22.30;54.70;;;;;;10359899;28;20224;-46
2023/11/16 15:38:20;;;;;;;2.88;2.00;;;22.30;54.70;;;;;;10357449;28;20252;-49
2023/11/16 15:43:23;;;;;;;3.30;2.10;;;22.30;54.80;;;;;;10359032;28;20318;-44
2023/11/16 15:48:27;;;;;;;5.00;2.65;;;22.30;54.80;;;;;;10374073;28;20267;-47
2023/11/16 15:59:08;;;;;;;3.72;2.42;;;22.30;54.80;;;;;;10364758;28;20604;-46
2023/11/16 16:04:11;;;;;;;3.65;2.67;;;22.30;54.80;;;;;;10365511;28;20244;-49
2023/11/16 16:09:17;;;;;;;2.50;2.20;;;22.30;54.80;;;;;;10374649;28;20389;-50
2023/11/16 16:14:21;;;;;;;4.28;2.60;;;22.30;54.90;;;;;;10376531;28;20247;-47
2023/11/16 16:19:25;;;;;;;3.15;2.50;;;22.30;54.80;;;;;;10379773;28;20221;-50
2023/11/16 16:24:30;;;;;;;4.57;2.60;;;22.30;54.90;;;;;;10379042;28;20299;-49
2023/11/16 16:29:34;;;;;;;3.55;2.75;;;22.40;54.90;;;;;;10363695;28;20245;-49
2023/11/16 16:34:38;;;;;;;4.22;2.80;;;22.40;54.90;;;;;;10361684;28;20279;-55
2023/11/16 16:39:43;;;;;;;5.60;3.00;;;22.40;54.90;;;;;;10358768;28;20228;-50
2023/11/16 16:44:46;;;;;;;4.82;2.75;;;22.40;55.30;;;;;;10345839;28;20253;-49
2023/11/16 16:49:52;;;;;;;2.97;2.58;;;22.40;54.90;;;;;;10371373;28;20236;-51
2023/11/16 16:54:56;;;;;;;4.03;2.70;;;22.40;55.00;;;;;;10386887;28;20209;-52
2023/11/16 17:00:00;;;;;;;5.10;2.83;;;22.40;55.00;;;;;;10362154;28;20288;-50
2023/11/16 17:05:04;;;;;;;4.00;2.88;;;22.40;55.00;;;;;;10382434;28;20314;-51
2023/11/16 17:10:11;;;;;;;3.83;3.05;;;22.40;55.00;;;;;;10374416;28;20267;-50
2023/11/16 17:15:15;;;;;;;4.40;2.90;;;22.40;55.00;;;;;;10384182;28;20282;-51
2023/11/16 17:20:18;;;;;;;4.72;3.10;;;22.40;55.00;;;;;;10373527;28;20256;-48
2023/11/16 17:25:23;;;;;;;3.05;2.75;;;22.40;55.10;;;;;;10365750;28;20303;-52
2023/11/16 17:30:28;;;;;;;3.80;2.95;;;22.40;55.10;;;;;;10380972;28;20200;-54
2023/11/16 17:35:33;;;;;;;3.40;2.65;;;22.40;55.10;;;;;;10381847;28;20220;-50
2023/11/16 17:40:39;;;;;;;3.33;2.78;;;22.40;55.10;;;;;;10375215;28;20205;-47
2023/11/16 17:45:43;;;;;;;3.72;2.63;;;22.40;55.10;;;;;;10380761;28;20224;-51
2023/11/16 17:50:47;;;;;;;3.65;2.80;;;22.40;55.20;;;;;;10376869;28;20217;-47
2023/11/16 17:55:53;;;;;;;3.42;2.75;;;22.40;55.20;;;;;;10376561;28;20229;-50
2023/11/16 18:00:57;;;;;;;4.15;2.45;;;22.40;55.30;;;;;;10361036;28;20204;-49
2023/11/16 18:06:01;;;;;;;4.07;2.60;;;22.40;55.30;;;;;;10370978;28;20708;-48
2023/11/16 18:11:08;;;;;;;3.20;2.90;;;22.40;55.30;;;;;;10369757;28;20229;-53
2023/11/16 18:16:12;;;;;;;4.25;2.78;;;22.40;55.30;;;;;;10364068;28;20221;-49
2023/11/16 18:21:16;;;;;;;8.90;2.97;;;22.40;55.30;;;;;;10361449;28;20302;-46
2023/11/16 18:26:21;;;;;;;3.92;2.97;;;22.40;55.30;;;;;;10366910;28;20244;-47
2023/11/16 18:31:24;;;;;;;11.43;3.00;;;22.40;55.30;;;;;;10365689;28;20200;-47
2023/11/16 18:36:28;;;;;;;7.45;2.95;;;22.40;55.30;;;;;;10320214;28;20257;-50
2023/11/16 18:41:34;;;;;;;4.30;2.58;;;22.40;55.90;;;;;;10281538;28;20300;-52
2023/11/16 18:46:38;;;;;;;4.75;2.70;;;22.40;55.30;;;;;;10267924;28;20706;-52
2023/11/16 18:51:42;;;;;;;3.70;2.42;;;22.40;55.30;;;;;;10266619;28;20710;-53
2023/11/16 18:56:49;;;;;;;4.75;3.00;;;22.40;55.30;;;;;;10262378;28;20800;-50
2023/11/16 19:01:53;;;;;;;4.60;2.80;;;22.40;55.30;;;;;;10243153;28;20277;-47
2023/11/16 19:06:56;;;;;;;3.70;2.63;;;22.40;55.30;;;;;;10271242;28;20253;-47
2023/11/16 19:12:02;;;;;;;4.57;2.75;;;22.40;55.30;;;;;;10321531;28;20272;-51
2023/11/16 19:17:05;;;;;;;4.75;2.80;;;22.40;55.40;;;;;;10320606;28;20249;-50
2023/11/16 19:22:11;;;;;;;4.72;2.65;;;22.40;55.30;;;;;;10338953;28;20253;-47
2023/11/16 19:27:17;;;;;;;8.57;2.70;;;22.40;55.40;;;;;;10333213;28;20245;-45
2023/11/16 19:32:23;;;;;;;6.38;2.80;;;22.40;55.40;;;;;;10315773;28;20236;-55
2023/11/16 19:37:28;;;;;;;6.43;2.83;;;22.40;55.40;;;;;;10337948;28;20279;-44
2023/11/16 19:42:33;;;;;;;4.50;2.97;;;22.40;55.40;;;;;;10333820;28;20767;-46
2023/11/16 19:47:38;;;;;;;5.35;2.58;;;22.40;55.40;;;;;;10329807;28;20225;-48
2023/11/16 19:52:42;;;;;;;3.47;2.20;;;22.40;55.40;;;;;;10342994;28;20209;-55
2023/11/16 19:57:50;;;;;;;3.47;2.65;;;22.40;55.50;;;;;;10320461;28;20714;-45
2023/11/16 20:02:54;;;;;;;3.72;2.58;;;22.40;55.40;;;;;;10335699;28;20249;-44
2023/11/16 20:07:58;;;;;;;4.07;2.45;;;22.40;55.40;;;;;;10332475;28;20697;-47
2023/11/16 20:13:03;;;;;;;4.80;2.90;;;22.50;55.50;;;;;;10331652;28;20198;-46
2023/11/16 20:18:09;;;;;;;3.20;2.35;;;22.40;55.50;;;;;;10343803;28;20642;-45
2023/11/16 20:23:13;;;;;;;3.03;2.53;;;22.40;55.50;;;;;;10329805;28;20531;-43
2023/11/16 20:28:18;;;;;;;3.28;2.20;;;22.40;55.50;;;;;;10327954;28;20292;-43
2023/11/16 20:33:22;;;;;;;6.60;3.05;;;22.40;55.50;;;;;;10333758;28;20206;-48
2023/11/16 20:38:26;;;;;;;4.15;2.40;;;22.40;55.50;;;;;;10331612;28;20253;-48
2023/11/16 20:43:31;;;;;;;4.07;2.70;;;22.40;55.50;;;;;;10332483;28;20311;-46
2023/11/16 20:48:34;;;;;;;3.75;2.60;;;22.40;55.50;;;;;;10331226;28;20256;-45
2023/11/16 20:53:38;;;;;;;4.22;2.40;;;22.50;55.60;;;;;;10328985;28;20193;-46
2023/11/16 20:58:44;;;;;;;3.90;2.45;;;22.40;55.50;;;;;;10332861;28;20594;-45
2023/11/16 21:03:48;;;;;;;5.03;2.33;;;22.40;55.50;;;;;;10329377;28;20260;-47
2023/11/16 21:08:52;;;;;;;3.38;2.67;;;22.40;55.50;;;;;;10331023;28;20229;-45
2023/11/16 21:13:57;;;;;;;2.90;2.22;;;22.40;55.00;;;;;;10327048;28;20257;-47
2023/11/16 21:19:00;;;;;;;3.70;2.25;;;22.40;55.50;;;;;;10328594;28;20249;-45
2023/11/16 21:24:05;;;;;;;4.10;2.60;;;22.40;55.50;;;;;;10331222;28;20286;-46
2023/11/16 21:29:10;;;;;;;2.53;2.05;;;22.40;55.50;;;;;;10319332;28;20241;-45
2023/11/16 21:34:14;;;;;;;2.63;2.40;;;22.40;55.50;;;;;;10328869;28;20285;-45
2023/11/16 21:39:22;;;;;;;3.60;2.30;;;22.40;55.50;;;;;;10326791;28;20249;-46
2023/11/16 21:44:28;;;;;;;2.95;2.47;;;22.40;55.50;;;;;;10332985;28;20279;-48
2023/11/16 21:49:31;;;;;;;3.05;2.28;;;22.40;55.60;;;;;;10329835;28;20728;-47
2023/11/16 21:54:35;;;;;;;3.08;2.47;;;22.40;55.50;;;;;;10336414;28;20244;-47
2023/11/16 21:59:40;;;;;;;2.47;2.10;;;22.40;55.50;;;;;;10335270;28;20217;-45
2023/11/16 22:04:45;;;;;;;2.75;2.00;;;22.40;55.50;;;;;;10332298;28;20697;-49
2023/11/16 22:09:48;;;;;;;2.95;2.17;;;22.40;55.50;;;;;;10327108;28;20249;-46
2023/11/16 22:14:53;;;;;;;4.07;2.10;;;22.40;55.50;;;;;;10327369;28;20232;-47
2023/11/16 22:19:59;;;;;;;2.38;2.17;;;22.40;55.50;;;;;;10332011;28;20252;-44
2023/11/16 22:25:03;;;;;;;3.03;2.20;;;22.40;55.50;;;;;;10328587;28;20757;-46
2023/11/16 22:30:10;;;;;;;3.65;2.35;;;22.40;55.50;;;;;;10326983;28;20225;-46
2023/11/16 22:35:15;;;;;;;3.22;2.25;;;22.40;55.50;;;;;;10330076;28;20194;-45
2023/11/16 22:40:19;;;;;;;2.42;1.95;;;22.40;55.50;;;;;;10324077;28;20717;-44
2023/11/16 22:45:25;;;;;;;3.80;2.50;;;22.40;55.50;;;;;;10328209;28;20307;-53
2023/11/16 22:50:29;;;;;;;2.35;1.80;;;22.40;55.50;;;;;;10332590;28;20303;-46
2023/11/16 22:55:33;;;;;;;2.83;2.22;;;22.40;55.50;;;;;;10333857;28;20213;-46
2023/11/16 23:00:45;;;;;;;3.58;2.38;;;22.40;55.60;;;;;;10330699;28;20736;-47
2023/11/16 23:05:51;;;;;;;4.47;2.40;;;22.40;55.50;;;;;;10331640;28;20253;-47
2023/11/16 23:10:55;;;;;;;2.45;2.05;;;22.40;55.50;;;;;;10331824;28;20202;-47
2023/11/16 23:16:00;;;;;;;5.53;2.20;;;22.40;55.60;;;;;;10325241;28;20280;-45
2023/11/16 23:21:07;;;;;;;2.60;2.10;;;22.40;55.50;;;;;;10328499;28;20265;-46
2023/11/16 23:26:11;;;;;;;2.45;2.20;;;22.40;55.50;;;;;;10320423;28;20245;-46
2023/11/16 23:31:16;;;;;;;2.22;1.98;;;22.40;55.60;;;;;;10332195;28;20210;-49
2023/11/16 23:36:19;;;;;;;3.78;1.80;;;22.40;56.20;;;;;;10319309;28;20303;-47
2023/11/16 23:41:23;;;;;;;3.92;2.15;;;22.40;55.50;;;;;;10329714;28;20260;-47
2023/11/16 23:46:28;;;;;;;3.70;2.40;;;22.40;55.50;;;;;;10326874;28;20701;-48
2023/11/16 23:51:32;;;;;;;2.33;1.75;;;22.40;55.60;;;;;;10325453;28;20236;-44
2023/11/16 23:56:36;;;;;;;2.45;2.00;;;22.40;55.50;;;;;;10316387;28;20299;-45
